createdAt,value
2023-03-25T00:00:33.228Z,13.79
2023-03-25T00:03:51.173Z,13.72
2023-03-25T00:07:03.926Z,13.65
2023-03-25T00:10:18.663Z,13.62
2023-03-25T00:13:32.090Z,13.60
2023-03-25T00:16:46.772Z,13.59
2023-03-25T00:20:00.800Z,13.58
2023-03-25T00:23:13.299Z,13.56
2023-03-25T00:26:30.155Z,13.58
2023-03-25T00:29:40.585Z,13.58
2023-03-25T00:32:54.129Z,13.61
2023-03-25T00:36:07.849Z,13.59
2023-03-25T00:39:20.139Z,13.64
2023-03-25T00:42:34.556Z,13.68
2023-03-25T00:45:46.941Z,13.70
2023-03-25T00:49:00.278Z,13.71
2023-03-25T00:52:14.230Z,13.71
2023-03-25T00:55:27.755Z,13.71
2023-03-25T00:58:40.416Z,13.72
2023-03-25T01:01:53.586Z,13.70
2023-03-25T01:05:07.986Z,13.71
2023-03-25T01:08:22.537Z,13.68
2023-03-25T01:11:38.662Z,13.64
2023-03-25T01:14:51.651Z,13.66
2023-03-25T01:18:03.937Z,13.68
2023-03-25T01:21:17.306Z,13.65
2023-03-25T01:24:29.857Z,13.61
2023-03-25T01:27:41.970Z,13.58
2023-03-25T01:30:54.171Z,13.59
2023-03-25T01:34:07.652Z,13.62
2023-03-25T01:37:19.731Z,13.63
2023-03-25T01:40:32.195Z,13.57
2023-03-25T01:43:44.712Z,13.54
2023-03-25T01:46:59.388Z,13.54
2023-03-25T01:50:15.544Z,13.53
2023-03-25T01:53:28.071Z,13.51
2023-03-25T01:56:45.176Z,13.45
2023-03-25T01:59:59.796Z,13.45
2023-03-25T02:03:13.426Z,13.41
2023-03-25T02:06:32.357Z,13.40
2023-03-25T02:09:45.168Z,13.38
2023-03-25T02:12:57.588Z,13.33
2023-03-25T02:16:31.841Z,13.32
2023-03-25T02:20:18.127Z,13.26
2023-03-25T02:24:14.756Z,13.22
2023-03-25T02:27:36.942Z,13.20
2023-03-25T02:31:46.031Z,13.14
2023-03-25T02:35:22.584Z,13.16
2023-03-25T02:38:43.839Z,13.17
2023-03-25T02:42:01.923Z,13.16
2023-03-25T02:45:19.126Z,13.18
2023-03-25T02:48:33.433Z,13.19
2023-03-25T02:51:51.522Z,13.22
2023-03-25T02:55:10.443Z,13.24
2023-03-25T02:58:25.857Z,13.22
2023-03-25T03:01:38.172Z,13.22
2023-03-25T03:04:59.488Z,13.24
2023-03-25T03:08:26.719Z,13.23
2023-03-25T03:11:43.160Z,13.25
2023-03-25T03:15:15.257Z,13.25
2023-03-25T03:18:38.311Z,13.26
2023-03-25T03:21:55.912Z,13.27
2023-03-25T03:25:14.162Z,13.24
2023-03-25T03:28:32.158Z,13.25
2023-03-25T03:32:06.201Z,13.22
2023-03-25T03:35:08.299Z,13.19
2023-03-25T03:38:23.881Z,13.16
2023-03-25T03:41:40.343Z,13.20
2023-03-25T03:44:57.412Z,13.14
2023-03-25T03:48:10.450Z,13.11
2023-03-25T03:51:29.595Z,13.09
2023-03-25T03:54:46.784Z,13.10
2023-03-25T03:58:04.253Z,13.07
2023-03-25T04:01:23.537Z,13.03
2023-03-25T04:04:38.492Z,13.04
2023-03-25T04:07:57.364Z,13.01
2023-03-25T04:11:15.504Z,13.02
2023-03-25T04:14:28.239Z,12.99
2023-03-25T04:17:40.807Z,13.01
2023-03-25T04:20:53.586Z,13.02
2023-03-25T04:24:07.915Z,13.01
2023-03-25T04:27:23.187Z,13.00
2023-03-25T04:30:37.869Z,12.94
2023-03-25T04:33:51.091Z,12.87
2023-03-25T04:37:03.341Z,12.79
2023-03-25T04:40:18.973Z,12.73
2023-03-25T04:43:32.125Z,12.62
2023-03-25T04:46:45.681Z,12.62
2023-03-25T04:49:57.858Z,12.61
2023-03-25T04:53:10.106Z,12.47
2023-03-25T04:56:24.937Z,12.39
2023-03-25T04:59:37.061Z,12.26
2023-03-25T05:02:54.260Z,12.28
2023-03-25T05:06:06.606Z,12.19
2023-03-25T05:09:24.626Z,12.05
2023-03-25T05:12:37.018Z,12.06
2023-03-25T05:15:50.864Z,12.05
2023-03-25T05:19:03.656Z,12.02
2023-03-25T05:22:16.113Z,11.87
2023-03-25T05:25:29.325Z,11.82
2023-03-25T05:28:41.898Z,11.81
2023-03-25T05:31:54.591Z,11.79
2023-03-25T05:35:07.693Z,11.76
2023-03-25T05:38:21.851Z,11.72
2023-03-25T05:41:39.025Z,11.63
2023-03-25T05:44:51.893Z,11.60
2023-03-25T05:48:04.270Z,11.54
2023-03-25T05:51:21.914Z,11.57
2023-03-25T05:54:34.198Z,11.53
2023-03-25T05:57:46.320Z,11.53
2023-03-25T06:00:59.991Z,11.53
2023-03-25T06:04:13.591Z,11.52
2023-03-25T06:07:26.246Z,11.58
2023-03-25T06:10:39.132Z,11.60
2023-03-25T06:13:53.856Z,11.65
2023-03-25T06:17:05.985Z,11.66
2023-03-25T06:20:20.286Z,11.61
2023-03-25T06:23:34.954Z,11.66
2023-03-25T06:26:47.477Z,11.66
2023-03-25T06:29:59.812Z,11.75
2023-03-25T06:33:11.986Z,11.79
2023-03-25T06:36:26.132Z,11.81
2023-03-25T06:39:39.160Z,11.82
2023-03-25T06:42:53.528Z,11.80
2023-03-25T06:46:24.734Z,11.79
2023-03-25T06:49:42.100Z,11.85
2023-03-25T06:52:54.412Z,11.91
2023-03-25T06:56:06.619Z,11.87
2023-03-25T06:59:18.808Z,11.92
2023-03-25T07:02:31.385Z,11.94
2023-03-25T07:05:43.891Z,11.98
2023-03-25T07:08:56.808Z,11.92
2023-03-25T07:12:09.824Z,11.99
2023-03-25T07:15:22.733Z,12.04
2023-03-25T07:18:36.019Z,12.05
2023-03-25T07:21:48.920Z,12.06
2023-03-25T07:25:03.378Z,12.25
2023-03-25T07:28:15.887Z,12.19
2023-03-25T07:31:30.249Z,12.29
2023-03-25T07:34:42.624Z,12.38
2023-03-25T07:37:55.400Z,12.43
2023-03-25T07:41:11.893Z,12.50
2023-03-25T07:44:27.480Z,12.55
2023-03-25T07:47:39.985Z,12.66
2023-03-25T07:50:52.448Z,12.74
2023-03-25T07:54:05.474Z,12.92
2023-03-25T07:57:19.029Z,12.95
2023-03-25T08:00:31.719Z,13.05
2023-03-25T08:03:44.085Z,13.08
2023-03-25T08:06:56.287Z,13.30
2023-03-25T08:10:09.434Z,13.46
2023-03-25T08:13:21.666Z,13.56
2023-03-25T08:16:34.180Z,13.81
2023-03-25T08:19:46.420Z,13.90
2023-03-25T08:22:59.401Z,14.35
2023-03-25T08:26:12.802Z,14.80
2023-03-25T08:29:25.593Z,15.31
2023-03-25T08:32:38.760Z,15.40
2023-03-25T08:35:51.410Z,15.21
2023-03-25T08:39:06.038Z,14.95
2023-03-25T08:42:19.608Z,14.88
2023-03-25T08:45:33.078Z,15.57
2023-03-25T08:48:45.605Z,15.72
2023-03-25T08:51:58.628Z,16.73
2023-03-25T08:55:12.676Z,17.42
2023-03-25T08:58:25.295Z,17.68
2023-03-25T09:01:37.975Z,17.94
2023-03-25T09:04:50.505Z,17.72
2023-03-25T09:08:02.722Z,18.34
2023-03-25T09:11:19.718Z,18.97
2023-03-25T09:14:30.044Z,18.98
2023-03-25T09:17:43.249Z,18.82
2023-03-25T09:20:56.588Z,19.78
2023-03-25T09:24:09.281Z,19.82
2023-03-25T09:27:21.727Z,20.50
2023-03-25T09:30:34.230Z,21.05
2023-03-25T09:33:46.950Z,21.33
2023-03-25T09:37:00.195Z,20.30
2023-03-25T09:40:17.290Z,19.13
2023-03-25T09:43:47.724Z,19.68
2023-03-25T09:47:06.380Z,20.85
2023-03-25T09:50:22.861Z,21.67
2023-03-25T09:53:42.292Z,22.18
2023-03-25T09:56:55.609Z,22.15
2023-03-25T10:00:21.765Z,21.30
2023-03-25T10:03:42.640Z,21.44
2023-03-25T10:07:01.095Z,21.83
2023-03-25T10:10:19.985Z,21.32
2023-03-25T10:13:39.029Z,21.76
2023-03-25T10:17:03.177Z,22.03
2023-03-25T10:20:22.513Z,21.38
2023-03-25T10:23:41.560Z,21.36
2023-03-25T10:26:58.228Z,20.55
2023-03-25T10:30:17.365Z,19.94
2023-03-25T10:33:36.098Z,19.56
2023-03-25T10:36:55.186Z,20.51
2023-03-25T10:40:24.769Z,20.22
2023-03-25T10:43:40.966Z,20.49
2023-03-25T10:46:58.500Z,20.18
2023-03-25T10:50:14.236Z,20.34
2023-03-25T10:53:30.599Z,19.44
2023-03-25T10:56:47.229Z,19.99
2023-03-25T11:00:12.398Z,20.26
2023-03-25T11:03:31.263Z,20.86
2023-03-25T11:06:46.980Z,21.07
2023-03-25T11:09:59.686Z,20.44
2023-03-25T11:13:18.815Z,20.94
2023-03-25T11:16:32.224Z,21.70
2023-03-25T11:19:51.225Z,21.34
2023-03-25T11:23:10.952Z,20.22
2023-03-25T11:26:27.673Z,20.26
2023-03-25T11:29:41.972Z,20.81
2023-03-25T11:33:03.415Z,20.57
2023-03-25T11:36:34.990Z,20.44
2023-03-25T11:39:48.864Z,19.71
2023-03-25T11:43:04.601Z,20.44
2023-03-25T11:46:20.557Z,20.44
2023-03-25T11:49:35.725Z,20.44
2023-03-25T11:52:51.750Z,20.72
2023-03-25T11:56:04.842Z,20.41
2023-03-25T11:59:26.344Z,20.31
2023-03-25T12:02:44.724Z,20.57
2023-03-25T12:06:10.667Z,20.84
2023-03-25T12:09:23.818Z,21.01
2023-03-25T12:12:50.988Z,20.88
2023-03-25T12:16:14.399Z,20.29
2023-03-25T12:19:34.167Z,19.52
2023-03-25T12:23:06.569Z,18.40
2023-03-25T12:26:23.788Z,17.59
2023-03-25T12:29:47.633Z,17.98
2023-03-25T12:33:05.812Z,17.38
2023-03-25T12:36:39.454Z,17.10
2023-03-25T12:40:03.805Z,16.69
2023-03-25T12:43:21.856Z,16.55
2023-03-25T12:46:49.924Z,16.72
2023-03-25T12:50:22.694Z,17.04
2023-03-25T12:53:48.635Z,17.43
2023-03-25T12:57:12.184Z,17.43
2023-03-25T13:00:49.824Z,16.56
2023-03-25T13:04:38.439Z,16.58
2023-03-25T13:07:56.596Z,15.93
2023-03-25T13:11:16.518Z,15.88
2023-03-25T13:14:33.506Z,15.35
2023-03-25T13:17:48.104Z,15.46
2023-03-25T13:21:13.814Z,15.54
2023-03-25T13:24:26.424Z,15.56
2023-03-25T13:27:43.856Z,15.44
2023-03-25T13:30:58.315Z,15.42
2023-03-25T13:34:23.066Z,15.13
2023-03-25T13:37:45.514Z,15.01
2023-03-25T13:41:06.735Z,15.25
2023-03-25T13:44:24.737Z,15.75
2023-03-25T13:47:41.898Z,15.91
2023-03-25T13:50:55.176Z,16.28
2023-03-25T13:54:12.922Z,16.29
2023-03-25T13:58:18.575Z,16.68
2023-03-25T14:01:52.562Z,16.80
2023-03-25T14:06:00.208Z,16.74
2023-03-25T14:09:34.825Z,16.64
2023-03-25T14:12:51.433Z,16.35
2023-03-25T14:16:10.599Z,16.22
2023-03-25T14:19:27.432Z,16.36
2023-03-25T14:22:43.988Z,16.38
2023-03-25T14:26:00.477Z,16.14
2023-03-25T14:29:23.168Z,15.74
2023-03-25T14:32:44.872Z,15.61
2023-03-25T14:36:00.476Z,15.52
2023-03-25T14:39:19.980Z,15.60
2023-03-25T14:43:03.341Z,15.73
2023-03-25T14:46:29.740Z,15.83
2023-03-25T14:50:01.915Z,15.83
2023-03-25T14:53:19.050Z,15.91
2023-03-25T14:56:33.020Z,15.73
2023-03-25T14:59:50.073Z,15.73
2023-03-25T15:03:09.107Z,15.77
2023-03-25T15:06:26.819Z,15.60
2023-03-25T15:09:41.606Z,15.44
2023-03-25T15:12:59.867Z,15.32
2023-03-25T15:16:22.719Z,15.45
2023-03-25T15:19:35.525Z,15.32
2023-03-25T15:22:47.927Z,15.36
2023-03-25T15:26:03.484Z,15.25
2023-03-25T15:29:43.507Z,15.16
2023-03-25T15:33:06.348Z,15.04
2023-03-25T15:36:39.084Z,14.86
2023-03-25T15:40:22.768Z,14.61
2023-03-25T15:44:24.156Z,14.55
2023-03-25T15:48:23.003Z,14.45
2023-03-25T15:52:08.656Z,14.33
2023-03-25T15:55:25.550Z,14.24
2023-03-25T15:58:43.518Z,14.13
2023-03-25T16:01:58.351Z,14.07
2023-03-25T16:05:13.266Z,14.06
2023-03-25T16:08:31.629Z,14.06
2023-03-25T16:11:50.118Z,13.98
2023-03-25T16:15:03.355Z,13.78
2023-03-25T16:18:19.550Z,13.64
2023-03-25T16:21:34.124Z,13.64
2023-03-25T16:24:47.068Z,13.57
2023-03-25T16:28:02.505Z,13.57
2023-03-25T16:31:22.513Z,13.47
2023-03-25T16:34:40.231Z,13.39
2023-03-25T16:37:52.669Z,13.38
2023-03-25T16:41:11.827Z,13.36
2023-03-25T16:44:27.719Z,13.30
2023-03-25T16:47:40.612Z,13.33
2023-03-25T16:50:54.667Z,13.26
2023-03-25T16:54:09.112Z,13.23
2023-03-25T16:57:26.064Z,13.17
2023-03-25T17:00:47.824Z,13.08
2023-03-25T17:04:12.419Z,13.02
2023-03-25T17:07:29.886Z,12.96
2023-03-25T17:10:51.334Z,12.91
2023-03-25T17:14:09.181Z,12.80
2023-03-25T17:17:36.127Z,12.73
2023-03-25T17:20:51.946Z,12.66
2023-03-25T17:24:08.258Z,12.64
2023-03-25T17:27:34.730Z,12.60
2023-03-25T17:30:50.870Z,12.56
2023-03-25T17:34:11.185Z,12.49
2023-03-25T17:37:25.745Z,12.52
2023-03-25T17:40:38.855Z,12.48
2023-03-25T17:43:54.454Z,12.38
2023-03-25T17:47:06.899Z,12.35
2023-03-25T17:50:32.985Z,12.36
2023-03-25T17:53:45.307Z,12.31
2023-03-25T17:56:58.521Z,12.34
2023-03-25T18:00:15.451Z,12.34
2023-03-25T18:03:30.948Z,12.27
2023-03-25T18:06:43.496Z,12.23
2023-03-25T18:09:56.056Z,12.15
2023-03-25T18:13:09.014Z,12.04
2023-03-25T18:16:23.846Z,11.99
2023-03-25T18:19:37.098Z,11.93
2023-03-25T18:22:49.390Z,11.91
2023-03-25T18:26:04.356Z,11.85
2023-03-25T18:29:23.216Z,11.80
2023-03-25T18:32:36.012Z,11.55
2023-03-25T18:35:48.885Z,11.73
2023-03-25T18:39:02.417Z,11.67
2023-03-25T18:42:14.913Z,11.66
2023-03-25T18:45:29.594Z,11.61
2023-03-25T18:48:42.009Z,11.61
2023-03-25T18:51:54.331Z,11.66
2023-03-25T18:55:06.513Z,11.68
2023-03-25T18:58:24.820Z,11.71
2023-03-25T19:01:37.362Z,11.74
2023-03-25T19:05:00.008Z,11.78
2023-03-25T19:08:05.897Z,11.79
2023-03-25T19:11:21.781Z,11.77
2023-03-25T19:14:33.624Z,11.79
2023-03-25T19:17:46.056Z,11.76
2023-03-25T19:20:59.495Z,11.66
2023-03-25T19:24:13.070Z,11.58
2023-03-25T19:27:25.392Z,11.60
2023-03-25T19:30:38.149Z,11.55
2023-03-25T19:33:50.897Z,11.47
2023-03-25T19:37:05.511Z,11.40
2023-03-25T19:40:20.518Z,11.38
2023-03-25T19:43:33.061Z,11.41
2023-03-25T19:46:45.343Z,11.44
2023-03-25T19:49:57.776Z,11.45
2023-03-25T19:53:11.710Z,11.39
2023-03-25T19:56:24.028Z,11.38
2023-03-25T19:59:36.758Z,11.33
2023-03-25T20:02:52.186Z,11.30
2023-03-25T20:06:06.971Z,11.26
2023-03-25T20:09:19.481Z,11.21
2023-03-25T20:12:32.639Z,11.22
2023-03-25T20:15:45.265Z,11.19
2023-03-25T20:18:57.603Z,11.09
2023-03-25T20:22:23.961Z,11.03
2023-03-25T20:25:25.832Z,11.06
2023-03-25T20:28:38.197Z,10.99
2023-03-25T20:31:50.403Z,10.94
2023-03-25T20:35:04.437Z,10.92
2023-03-25T20:38:17.382Z,10.91
2023-03-25T20:41:29.628Z,10.88
2023-03-25T20:44:43.832Z,10.83
2023-03-25T20:47:56.317Z,10.74
2023-03-25T20:51:12.292Z,10.68
2023-03-25T20:54:25.313Z,10.61
2023-03-25T20:57:37.841Z,10.61
2023-03-25T21:00:50.277Z,10.57
2023-03-25T21:04:04.756Z,10.53
2023-03-25T21:07:19.473Z,10.48
2023-03-25T21:10:31.817Z,10.40
2023-03-25T21:13:44.342Z,10.40
2023-03-25T21:16:56.650Z,10.37
2023-03-25T21:20:10.710Z,10.38
2023-03-25T21:23:25.545Z,10.37
2023-03-25T21:26:38.027Z,10.42
2023-03-25T21:29:50.520Z,10.50
2023-03-25T21:33:03.264Z,10.55
2023-03-25T21:36:20.700Z,10.60
2023-03-25T21:39:33.238Z,10.64
2023-03-25T21:42:46.499Z,10.67
2023-03-25T21:45:59.204Z,10.67
2023-03-25T21:49:14.146Z,10.69
2023-03-25T21:52:26.636Z,10.69
2023-03-25T21:55:40.065Z,10.67
2023-03-25T21:58:53.258Z,10.63
2023-03-25T22:02:06.257Z,10.63
2023-03-25T22:05:20.921Z,10.58
2023-03-25T22:08:33.363Z,10.51
2023-03-25T22:11:46.003Z,10.44
2023-03-25T22:14:58.272Z,10.34
2023-03-25T22:18:10.889Z,10.31
2023-03-25T22:21:26.784Z,10.39
2023-03-25T22:24:39.218Z,10.43
2023-03-25T22:27:51.649Z,10.46
2023-03-25T22:31:04.536Z,10.43
2023-03-25T22:34:19.404Z,10.42
2023-03-25T22:37:32.028Z,10.46
2023-03-25T22:40:44.413Z,10.44
2023-03-25T22:43:57.849Z,10.34
2023-03-25T22:47:10.516Z,10.32
2023-03-25T22:50:23.187Z,10.27
2023-03-25T22:53:35.936Z,10.21
2023-03-25T22:56:48.782Z,10.17
2023-03-25T23:00:01.473Z,10.14
2023-03-25T23:03:14.200Z,10.06
2023-03-25T23:06:26.997Z,10.02
2023-03-25T23:09:48.010Z,9.94
2023-03-25T23:13:00.434Z,9.80
2023-03-25T23:16:17.261Z,9.77
2023-03-25T23:19:29.458Z,9.68
2023-03-25T23:22:41.724Z,9.67
2023-03-25T23:25:54.426Z,9.61
2023-03-25T23:29:09.183Z,9.55
2023-03-25T23:32:21.997Z,9.51
2023-03-25T23:35:35.688Z,9.43
2023-03-25T23:38:48.423Z,9.37
2023-03-25T23:42:01.660Z,9.33
2023-03-25T23:45:16.731Z,9.23
2023-03-25T23:48:30.264Z,9.20
2023-03-25T23:51:45.942Z,9.19
2023-03-25T23:54:58.145Z,9.14
2023-03-25T23:58:10.343Z,9.14
